createdAt,value
2023-11-30T00:01:25.654Z,3.77
2023-11-30T00:03:54.476Z,3.88
2023-11-30T00:06:23.735Z,3.73
2023-11-30T00:08:51.878Z,3.54
2023-11-30T00:11:19.808Z,3.54
2023-11-30T00:13:47.568Z,3.59
2023-11-30T00:16:15.363Z,3.69
2023-11-30T00:18:43.184Z,3.66
2023-11-30T00:21:10.963Z,3.73
2023-11-30T00:23:40.074Z,3.50
2023-11-30T00:26:08.155Z,3.45
2023-11-30T00:28:37.482Z,3.55
2023-11-30T00:31:06.427Z,3.58
2023-11-30T00:33:53.088Z,3.48
2023-11-30T00:36:21.006Z,3.26
2023-11-30T00:38:50.475Z,3.19
2023-11-30T00:41:18.645Z,3.23
2023-11-30T00:43:46.458Z,3.28
2023-11-30T00:46:16.007Z,3.28
2023-11-30T00:48:44.345Z,3.41
2023-11-30T00:51:12.715Z,3.27
2023-11-30T00:53:41.150Z,3.42
2023-11-30T00:56:12.901Z,3.49
2023-11-30T00:58:40.750Z,3.49
2023-11-30T01:01:08.658Z,3.49
2023-11-30T01:03:36.551Z,3.56
2023-11-30T01:06:04.485Z,3.52
2023-11-30T01:08:32.333Z,3.60
2023-11-30T01:11:00.083Z,3.69
2023-11-30T01:13:29.194Z,3.77
2023-11-30T01:15:57.145Z,3.87
2023-11-30T01:18:25.052Z,4.00
2023-11-30T01:20:52.886Z,4.03
2023-11-30T01:23:20.877Z,4.03
2023-11-30T01:25:48.652Z,3.78
2023-11-30T01:28:16.415Z,3.88
2023-11-30T01:30:45.740Z,3.74
2023-11-30T01:33:13.558Z,3.80
2023-11-30T01:35:41.353Z,3.75
2023-11-30T01:38:09.172Z,3.66
2023-11-30T01:40:36.961Z,3.65
2023-11-30T01:43:07.591Z,3.59
2023-11-30T01:45:35.478Z,3.66
2023-11-30T01:48:04.807Z,3.62
2023-11-30T01:50:32.689Z,3.60
2023-11-30T01:53:00.729Z,3.73
2023-11-30T01:55:29.354Z,3.78
2023-11-30T01:57:57.672Z,3.76
2023-11-30T02:00:26.738Z,3.79
2023-11-30T02:02:54.953Z,3.70
2023-11-30T02:05:24.045Z,3.84
2023-11-30T02:07:52.678Z,3.86
2023-11-30T02:10:21.014Z,3.86
2023-11-30T02:12:48.967Z,3.88
2023-11-30T02:15:17.539Z,3.81
2023-11-30T02:17:46.443Z,3.82
2023-11-30T02:20:15.006Z,3.81
2023-11-30T02:22:44.796Z,3.68
2023-11-30T02:25:12.543Z,3.60
2023-11-30T02:27:40.285Z,3.69
2023-11-30T02:30:10.580Z,3.60
2023-11-30T02:32:38.398Z,3.56
2023-11-30T02:35:07.131Z,3.52
2023-11-30T02:37:35.488Z,3.50
2023-11-30T02:40:05.469Z,3.38
2023-11-30T02:42:33.233Z,3.47
2023-11-30T02:45:01.043Z,3.37
2023-11-30T02:47:28.881Z,3.42
2023-11-30T02:49:56.614Z,3.35
2023-11-30T02:52:24.352Z,3.32
2023-11-30T02:54:52.101Z,3.29
2023-11-30T02:57:21.431Z,3.30
2023-11-30T02:59:49.236Z,3.23
2023-11-30T03:02:17.233Z,3.39
2023-11-30T03:04:46.180Z,3.33
2023-11-30T03:07:13.968Z,3.35
2023-11-30T03:09:41.842Z,3.37
2023-11-30T03:12:09.830Z,3.38
2023-11-30T03:14:39.000Z,3.42
2023-11-30T03:17:06.722Z,3.51
2023-11-30T03:19:34.474Z,3.47
2023-11-30T03:22:02.200Z,3.46
2023-11-30T03:24:29.945Z,3.45
2023-11-30T03:26:57.748Z,3.49
2023-11-30T03:29:25.579Z,3.48
2023-11-30T03:31:54.931Z,3.25
2023-11-30T03:34:22.674Z,3.32
2023-11-30T03:36:50.437Z,3.31
2023-11-30T03:39:18.348Z,3.31
2023-11-30T03:41:46.175Z,3.40
2023-11-30T03:44:13.935Z,3.34
2023-11-30T03:46:41.742Z,3.35
2023-11-30T03:49:10.931Z,3.33
2023-11-30T03:51:38.753Z,3.37
2023-11-30T03:54:07.005Z,3.31
2023-11-30T03:56:34.832Z,3.31
2023-11-30T03:59:02.563Z,3.39
2023-11-30T04:01:30.592Z,3.37
2023-11-30T04:03:58.462Z,3.24
2023-11-30T04:06:27.600Z,3.17
2023-11-30T04:08:56.829Z,3.26
2023-11-30T04:11:24.593Z,3.27
2023-11-30T04:13:52.619Z,3.28
2023-11-30T04:16:20.688Z,3.30
2023-11-30T04:18:48.627Z,3.21
2023-11-30T04:21:16.572Z,3.19
2023-11-30T04:23:47.379Z,3.17
2023-11-30T04:26:15.248Z,3.08
2023-11-30T04:28:43.372Z,2.92
2023-11-30T04:31:11.531Z,2.85
2023-11-30T04:33:39.689Z,2.86
2023-11-30T04:36:08.384Z,2.85
2023-11-30T04:38:36.171Z,2.92
2023-11-30T04:41:05.556Z,2.98
2023-11-30T04:43:37.412Z,3.02
2023-11-30T04:46:06.165Z,2.91
2023-11-30T04:48:34.668Z,3.02
2023-11-30T04:51:02.555Z,3.03
2023-11-30T04:53:30.294Z,3.04
2023-11-30T04:55:58.056Z,3.12
2023-11-30T04:58:27.893Z,3.14
2023-11-30T05:00:55.671Z,3.00
2023-11-30T05:03:23.604Z,2.97
2023-11-30T05:05:51.475Z,3.02
2023-11-30T05:08:19.214Z,3.01
2023-11-30T05:10:47.070Z,2.83
2023-11-30T05:13:15.223Z,2.90
2023-11-30T05:15:46.351Z,2.82
2023-11-30T05:18:15.361Z,2.91
2023-11-30T05:20:43.200Z,2.86
2023-11-30T05:23:10.958Z,3.06
2023-11-30T05:25:38.933Z,3.10
2023-11-30T05:28:07.634Z,3.25
2023-11-30T05:30:35.428Z,3.30
2023-11-30T05:33:05.431Z,3.32
2023-11-30T05:35:34.274Z,3.37
2023-11-30T05:38:02.061Z,3.42
2023-11-30T05:40:29.915Z,3.52
2023-11-30T05:42:57.649Z,3.48
2023-11-30T05:45:25.724Z,3.45
2023-11-30T05:47:54.196Z,3.34
2023-11-30T05:50:23.687Z,3.33
2023-11-30T05:52:51.451Z,3.39
2023-11-30T05:55:19.308Z,3.33
2023-11-30T05:57:47.095Z,3.38
2023-11-30T06:00:16.373Z,3.37
2023-11-30T06:02:44.433Z,3.35
2023-11-30T06:05:12.510Z,3.36
2023-11-30T06:07:45.671Z,3.41
2023-11-30T06:10:15.111Z,3.34
2023-11-30T06:12:42.952Z,3.16
2023-11-30T06:15:11.829Z,3.11
2023-11-30T06:17:39.687Z,3.23
2023-11-30T06:20:11.748Z,3.19
2023-11-30T06:22:41.115Z,3.10
2023-11-30T06:25:10.150Z,3.19
2023-11-30T06:27:38.196Z,3.24
2023-11-30T06:30:07.589Z,3.27
2023-11-30T06:32:35.412Z,3.29
2023-11-30T06:35:03.551Z,3.33
2023-11-30T06:37:31.358Z,3.17
2023-11-30T06:40:00.504Z,3.14
2023-11-30T06:42:28.366Z,3.14
2023-11-30T06:44:56.171Z,2.98
2023-11-30T06:47:24.010Z,2.76
2023-11-30T06:49:51.873Z,2.67
2023-11-30T06:52:19.714Z,2.67
2023-11-30T06:54:47.467Z,2.63
2023-11-30T06:57:16.762Z,2.36
2023-11-30T06:59:44.683Z,2.52
2023-11-30T07:02:12.678Z,2.31
2023-11-30T07:04:40.565Z,2.40
2023-11-30T07:07:10.102Z,2.31
2023-11-30T07:09:40.665Z,2.37
2023-11-30T07:12:09.257Z,2.24
2023-11-30T07:14:50.562Z,2.04
2023-11-30T07:17:19.626Z,2.21
2023-11-30T07:19:47.559Z,2.09
2023-11-30T07:22:15.389Z,2.04
2023-11-30T07:24:43.254Z,2.14
2023-11-30T07:27:11.394Z,1.84
2023-11-30T07:29:40.585Z,1.78
2023-11-30T07:32:09.810Z,1.99
2023-11-30T07:34:37.692Z,1.86
2023-11-30T07:37:05.782Z,1.95
2023-11-30T07:39:34.192Z,1.84
2023-11-30T07:42:03.951Z,1.87
2023-11-30T07:44:32.294Z,1.66
2023-11-30T07:47:01.470Z,1.79
2023-11-30T07:49:29.699Z,1.59
2023-11-30T07:51:57.665Z,1.60
2023-11-30T07:54:25.581Z,1.64
2023-11-30T07:56:53.600Z,1.77
2023-11-30T07:59:21.394Z,1.73
2023-11-30T08:01:49.205Z,1.73
2023-11-30T08:04:18.659Z,1.81
2023-11-30T08:06:47.232Z,1.74
2023-11-30T08:09:15.698Z,1.63
2023-11-30T08:11:43.617Z,1.77
2023-11-30T08:14:11.474Z,1.67
2023-11-30T08:16:41.637Z,1.77
2023-11-30T08:19:09.970Z,1.84
2023-11-30T08:21:41.607Z,2.02
2023-11-30T08:24:09.829Z,2.04
2023-11-30T08:26:37.746Z,2.08
2023-11-30T08:29:05.879Z,2.20
2023-11-30T08:31:34.884Z,2.20
2023-11-30T08:34:02.910Z,2.20
2023-11-30T08:36:30.844Z,2.22
2023-11-30T08:39:00.086Z,2.28
2023-11-30T08:41:28.016Z,2.42
2023-11-30T08:43:56.540Z,2.44
2023-11-30T08:46:24.512Z,2.49
2023-11-30T08:48:52.670Z,2.56
2023-11-30T08:51:20.645Z,2.61
2023-11-30T08:53:48.451Z,2.70
2023-11-30T08:56:17.729Z,2.70
2023-11-30T08:58:45.737Z,2.74
2023-11-30T09:01:13.626Z,2.76
2023-11-30T09:03:42.563Z,2.82
2023-11-30T09:06:11.402Z,2.84
2023-11-30T09:08:39.382Z,2.87
2023-11-30T09:11:08.197Z,2.65
2023-11-30T09:13:37.445Z,2.45
2023-11-30T09:16:05.669Z,2.45
2023-11-30T09:18:33.869Z,2.53
2023-11-30T09:21:02.008Z,2.59
2023-11-30T09:23:30.880Z,2.62
2023-11-30T09:25:58.801Z,2.71
2023-11-30T09:28:27.863Z,2.76
2023-11-30T09:30:56.990Z,2.64
2023-11-30T09:33:25.463Z,2.66
2023-11-30T09:35:53.542Z,2.80
2023-11-30T09:38:21.302Z,2.95
2023-11-30T09:40:49.197Z,2.98
2023-11-30T09:43:17.978Z,3.09
2023-11-30T09:45:47.323Z,2.97
2023-11-30T09:48:16.885Z,3.17
2023-11-30T09:50:44.824Z,3.20
2023-11-30T09:53:13.051Z,3.20
2023-11-30T09:55:41.031Z,3.23
2023-11-30T09:58:08.823Z,3.16
2023-11-30T10:00:36.797Z,3.19
2023-11-30T10:03:07.100Z,3.23
2023-11-30T10:05:36.450Z,3.23
2023-11-30T10:08:04.437Z,3.39
2023-11-30T10:10:32.503Z,3.37
2023-11-30T10:13:00.321Z,3.22
2023-11-30T10:15:28.241Z,3.13
2023-11-30T10:17:56.302Z,3.13
2023-11-30T10:20:26.912Z,3.11
2023-11-30T10:22:56.268Z,3.17
2023-11-30T10:25:24.082Z,3.09
2023-11-30T10:27:54.628Z,3.07
2023-11-30T10:30:26.601Z,2.95
2023-11-30T10:32:54.974Z,2.95
2023-11-30T10:35:24.299Z,2.86
2023-11-30T10:37:54.168Z,2.65
2023-11-30T10:40:26.224Z,2.79
2023-11-30T10:42:54.050Z,2.79
2023-11-30T10:45:22.684Z,2.82
2023-11-30T10:47:52.684Z,2.91
2023-11-30T10:50:21.859Z,2.97
2023-11-30T10:52:53.919Z,2.91
2023-11-30T10:55:24.777Z,2.88
2023-11-30T10:57:58.272Z,2.73
2023-11-30T11:00:26.981Z,2.77
2023-11-30T11:02:55.157Z,2.64
2023-11-30T11:05:23.037Z,2.88
2023-11-30T11:07:52.553Z,2.71
2023-11-30T11:10:25.938Z,2.69
2023-11-30T11:12:54.028Z,2.82
2023-11-30T11:15:24.095Z,2.69
2023-11-30T11:17:54.175Z,2.62
2023-11-30T11:20:27.640Z,2.74
2023-11-30T11:22:55.876Z,2.93
2023-11-30T11:25:26.809Z,2.71
2023-11-30T11:27:55.932Z,2.36
2023-11-30T11:30:27.812Z,2.51
2023-11-30T11:32:59.073Z,2.67
2023-11-30T11:35:28.074Z,2.62
2023-11-30T11:37:58.949Z,2.82
2023-11-30T11:40:29.251Z,2.93
2023-11-30T11:42:57.151Z,2.88
2023-11-30T11:45:25.775Z,2.73
2023-11-30T11:47:54.219Z,2.77
2023-11-30T11:50:22.257Z,2.76
2023-11-30T11:52:50.641Z,2.78
2023-11-30T11:55:18.899Z,2.70
2023-11-30T11:57:48.072Z,2.79
2023-11-30T12:00:19.474Z,2.88
2023-11-30T12:02:47.528Z,2.82
2023-11-30T12:05:17.414Z,3.13
2023-11-30T12:07:50.285Z,3.06
2023-11-30T12:10:31.693Z,3.09
2023-11-30T12:13:02.532Z,2.98
2023-11-30T12:15:31.400Z,3.03
2023-11-30T12:17:59.505Z,3.07
2023-11-30T12:20:28.107Z,3.11
2023-11-30T12:22:56.770Z,3.13
2023-11-30T12:25:25.833Z,3.29
2023-11-30T12:27:54.070Z,3.31
2023-11-30T12:30:24.739Z,3.39
2023-11-30T12:32:53.132Z,3.24
2023-11-30T12:35:21.128Z,3.26
2023-11-30T12:37:50.110Z,3.28
2023-11-30T12:40:18.243Z,3.34
2023-11-30T12:42:46.293Z,3.31
2023-11-30T12:45:14.916Z,3.34
2023-11-30T12:47:46.516Z,3.40
2023-11-30T12:50:15.314Z,3.39
2023-11-30T12:52:43.281Z,3.49
2023-11-30T12:55:11.391Z,3.46
2023-11-30T12:57:40.503Z,3.31
2023-11-30T13:00:15.944Z,3.37
2023-11-30T13:02:48.517Z,3.60
2023-11-30T13:05:17.550Z,3.63
2023-11-30T13:07:45.516Z,3.68
2023-11-30T13:10:13.760Z,3.74
2023-11-30T13:12:43.310Z,3.78
2023-11-30T13:15:13.408Z,3.80
2023-11-30T13:17:42.182Z,3.77
2023-11-30T13:20:14.672Z,3.71
2023-11-30T13:22:45.851Z,3.89
2023-11-30T13:25:14.918Z,3.85
2023-11-30T13:27:46.650Z,3.63
2023-11-30T13:30:15.699Z,3.63
2023-11-30T13:32:43.743Z,3.75
2023-11-30T13:35:12.981Z,3.73
2023-11-30T13:37:40.883Z,3.87
2023-11-30T13:40:10.746Z,4.00
2023-11-30T13:42:38.963Z,4.15
2023-11-30T13:45:07.420Z,4.19
2023-11-30T13:47:35.569Z,4.23
2023-11-30T13:50:04.519Z,4.23
2023-11-30T13:52:33.793Z,4.26
2023-11-30T13:55:01.655Z,4.32
2023-11-30T13:57:29.935Z,4.38
2023-11-30T13:59:57.735Z,4.49
2023-11-30T14:02:25.599Z,4.56
2023-11-30T14:04:53.692Z,4.63
2023-11-30T14:07:21.537Z,4.66
2023-11-30T14:09:50.807Z,4.73
2023-11-30T14:12:18.674Z,4.79
2023-11-30T14:14:46.778Z,4.85
2023-11-30T14:17:14.891Z,4.86
2023-11-30T14:19:42.724Z,4.81
2023-11-30T14:22:10.650Z,4.85
2023-11-30T14:24:38.400Z,4.89
2023-11-30T14:27:07.653Z,4.92
2023-11-30T14:29:35.548Z,4.96
2023-11-30T14:32:04.590Z,4.83
2023-11-30T14:34:32.413Z,4.89
2023-11-30T14:37:00.181Z,4.84
2023-11-30T14:39:29.429Z,4.84
2023-11-30T14:41:57.684Z,4.84
2023-11-30T14:44:27.180Z,4.85
2023-11-30T14:46:55.522Z,4.87
2023-11-30T14:49:23.511Z,4.85
2023-11-30T14:51:51.375Z,4.88
2023-11-30T14:54:19.224Z,4.85
2023-11-30T14:56:47.092Z,4.80
2023-11-30T14:59:14.908Z,4.78
2023-11-30T15:01:44.235Z,4.72
2023-11-30T15:04:12.206Z,4.69
2023-11-30T15:06:40.671Z,4.70
2023-11-30T15:09:09.335Z,4.67
2023-11-30T15:11:38.427Z,4.60
2023-11-30T15:14:06.843Z,4.60
2023-11-30T15:16:34.798Z,4.64
2023-11-30T15:19:04.204Z,4.72
2023-11-30T15:21:32.093Z,4.75
2023-11-30T15:23:59.883Z,4.82
2023-11-30T15:26:29.656Z,4.86
2023-11-30T15:28:57.627Z,4.82
2023-11-30T15:31:26.897Z,4.77
2023-11-30T15:33:55.142Z,4.82
2023-11-30T15:36:24.549Z,4.82
2023-11-30T15:38:52.546Z,4.89
2023-11-30T15:41:20.451Z,4.86
2023-11-30T15:43:48.270Z,4.87
2023-11-30T15:46:16.090Z,4.85
2023-11-30T15:48:43.890Z,4.79
2023-11-30T15:51:12.719Z,4.80
2023-11-30T15:53:41.951Z,4.77
2023-11-30T15:56:10.322Z,4.79
2023-11-30T15:58:38.900Z,4.75
2023-11-30T16:01:11.593Z,4.73
2023-11-30T16:03:39.405Z,4.71
2023-11-30T16:06:11.305Z,4.73
2023-11-30T16:08:39.359Z,4.76
2023-11-30T16:11:15.076Z,4.87
2023-11-30T16:13:43.091Z,4.83
2023-11-30T16:16:13.443Z,4.70
2023-11-30T16:18:41.850Z,4.66
2023-11-30T16:21:16.618Z,4.65
2023-11-30T16:23:45.631Z,4.69
2023-11-30T16:26:19.982Z,4.65
2023-11-30T16:28:48.166Z,4.65
2023-11-30T16:31:16.021Z,4.57
2023-11-30T16:33:44.570Z,4.44
2023-11-30T16:36:13.412Z,4.47
2023-11-30T16:38:41.311Z,4.07
2023-11-30T16:41:09.669Z,4.08
2023-11-30T16:43:38.868Z,3.91
2023-11-30T16:46:08.186Z,4.08
2023-11-30T16:48:36.803Z,4.01
2023-11-30T16:51:07.340Z,4.05
2023-11-30T16:53:35.549Z,4.09
2023-11-30T16:56:03.975Z,4.01
2023-11-30T16:58:32.893Z,3.92
2023-11-30T17:01:02.289Z,3.99
2023-11-30T17:03:30.093Z,4.05
2023-11-30T17:05:58.018Z,4.17
2023-11-30T17:08:25.948Z,4.28
2023-11-30T17:10:53.951Z,4.37
2023-11-30T17:13:23.565Z,4.36
2023-11-30T17:15:53.579Z,4.33
2023-11-30T17:18:23.177Z,4.37
2023-11-30T17:20:51.149Z,4.42
2023-11-30T17:23:19.026Z,4.51
2023-11-30T17:25:47.493Z,4.56
2023-11-30T17:28:15.358Z,4.55
2023-11-30T17:30:43.195Z,4.61
2023-11-30T17:33:11.388Z,4.57
2023-11-30T17:35:41.887Z,4.60
2023-11-30T17:38:09.793Z,4.63
2023-11-30T17:40:37.588Z,4.70
2023-11-30T17:43:05.383Z,4.83
2023-11-30T17:45:33.312Z,4.83
2023-11-30T17:48:01.143Z,4.93
2023-11-30T17:50:29.071Z,4.94
2023-11-30T17:52:58.362Z,4.80
2023-11-30T17:55:26.182Z,4.81
2023-11-30T17:57:54.135Z,4.73
2023-11-30T18:00:22.076Z,4.59
2023-11-30T18:02:50.108Z,4.47
2023-11-30T18:05:18.072Z,4.52
2023-11-30T18:07:45.962Z,4.55
2023-11-30T18:10:15.095Z,4.45
2023-11-30T18:12:43.213Z,4.39
2023-11-30T18:15:11.416Z,4.41
2023-11-30T18:17:39.302Z,4.44
2023-11-30T18:20:07.851Z,4.50
2023-11-30T18:22:35.698Z,4.57
2023-11-30T18:25:03.621Z,4.71
2023-11-30T18:27:33.415Z,4.79
2023-11-30T18:30:01.346Z,4.86
2023-11-30T18:32:29.617Z,4.88
2023-11-30T18:34:57.616Z,4.94
2023-11-30T18:37:25.680Z,5.01
2023-11-30T18:39:56.041Z,5.02
2023-11-30T18:42:24.482Z,5.07
2023-11-30T18:44:53.676Z,5.15
2023-11-30T18:47:21.445Z,5.11
2023-11-30T18:49:49.680Z,5.07
2023-11-30T18:52:17.942Z,5.02
2023-11-30T18:54:47.915Z,5.00
2023-11-30T18:57:15.941Z,4.93
2023-11-30T18:59:43.984Z,4.97
2023-11-30T19:02:13.185Z,4.95
2023-11-30T19:04:42.970Z,5.01
2023-11-30T19:07:10.868Z,5.04
2023-11-30T19:09:38.841Z,4.98
2023-11-30T19:12:08.995Z,5.04
2023-11-30T19:14:39.090Z,5.05
2023-11-30T19:17:09.330Z,5.08
2023-11-30T19:19:39.251Z,5.11
2023-11-30T19:22:07.381Z,5.09
2023-11-30T19:24:35.234Z,5.13
2023-11-30T19:27:03.099Z,5.19
2023-11-30T19:29:32.943Z,5.25
2023-11-30T19:32:01.226Z,5.31
2023-11-30T19:34:29.058Z,5.35
2023-11-30T19:36:58.342Z,5.36
2023-11-30T19:39:27.665Z,5.38
2023-11-30T19:41:55.642Z,5.38
2023-11-30T19:44:23.437Z,5.41
2023-11-30T19:46:51.891Z,5.41
2023-11-30T19:49:20.644Z,5.41
2023-11-30T19:51:48.519Z,5.49
2023-11-30T19:54:17.780Z,5.45
2023-11-30T19:56:45.904Z,5.46
2023-11-30T19:59:13.782Z,5.42
2023-11-30T20:01:41.841Z,5.41
2023-11-30T20:04:09.815Z,5.43
2023-11-30T20:06:37.698Z,5.41
2023-11-30T20:09:05.647Z,5.43
2023-11-30T20:11:35.165Z,5.46
2023-11-30T20:14:03.054Z,5.46
2023-11-30T20:16:31.143Z,5.48
2023-11-30T20:18:58.886Z,5.46
2023-11-30T20:21:26.763Z,5.48
2023-11-30T20:23:54.926Z,5.44
2023-11-30T20:26:22.789Z,5.47
2023-11-30T20:28:51.968Z,5.47
2023-11-30T20:31:21.227Z,5.42
2023-11-30T20:33:51.292Z,5.41
2023-11-30T20:36:19.251Z,5.44
2023-11-30T20:38:47.445Z,5.45
2023-11-30T20:41:15.483Z,5.47
2023-11-30T20:43:43.314Z,5.45
2023-11-30T20:46:15.920Z,5.46
2023-11-30T20:48:44.734Z,5.46
2023-11-30T20:51:14.831Z,5.46
2023-11-30T20:53:43.440Z,5.46
2023-11-30T20:56:12.067Z,5.48
2023-11-30T20:58:39.982Z,5.48
2023-11-30T21:01:09.079Z,5.45
2023-11-30T21:03:38.833Z,5.48
2023-11-30T21:06:07.502Z,5.48
2023-11-30T21:08:35.319Z,5.48
2023-11-30T21:11:03.456Z,5.47
2023-11-30T21:13:33.324Z,5.43
2023-11-30T21:16:01.346Z,5.43
2023-11-30T21:18:29.404Z,5.37
2023-11-30T21:20:59.029Z,5.37
2023-11-30T21:23:26.840Z,5.36
2023-11-30T21:25:55.322Z,5.33
2023-11-30T21:28:23.094Z,5.26
2023-11-30T21:30:50.967Z,5.25
2023-11-30T21:33:18.892Z,5.21
2023-11-30T21:35:46.715Z,5.15
2023-11-30T21:38:15.925Z,5.11
2023-11-30T21:40:43.995Z,5.09
2023-11-30T21:43:12.193Z,5.15
2023-11-30T21:45:40.055Z,5.16
2023-11-30T21:48:08.289Z,5.12
2023-11-30T21:50:36.097Z,5.12
2023-11-30T21:53:04.948Z,5.07
2023-11-30T21:55:34.156Z,5.05
2023-11-30T21:58:01.963Z,4.95
2023-11-30T22:00:29.843Z,4.97
2023-11-30T22:02:58.004Z,4.93
2023-11-30T22:05:30.990Z,4.95
2023-11-30T22:08:04.108Z,4.98
2023-11-30T22:10:31.928Z,5.01
2023-11-30T22:13:01.197Z,5.00
2023-11-30T22:15:29.129Z,5.04
2023-11-30T22:17:57.668Z,5.06
2023-11-30T22:20:25.488Z,5.09
2023-11-30T22:22:53.631Z,5.10
2023-11-30T22:25:21.448Z,5.13
2023-11-30T22:27:49.281Z,5.11
2023-11-30T22:30:18.676Z,5.15
2023-11-30T22:32:46.639Z,5.14
2023-11-30T22:35:14.544Z,5.15
2023-11-30T22:37:42.439Z,5.12
2023-11-30T22:40:11.213Z,5.10
2023-11-30T22:42:39.104Z,5.09
2023-11-30T22:45:07.889Z,5.10
2023-11-30T22:47:37.558Z,5.12
2023-11-30T22:50:06.026Z,5.11
2023-11-30T22:52:33.957Z,5.14
2023-11-30T22:55:01.936Z,5.09
2023-11-30T22:57:29.909Z,5.10
2023-11-30T22:59:57.736Z,5.13
2023-11-30T23:02:28.214Z,5.12
2023-11-30T23:04:58.521Z,5.15
2023-11-30T23:07:26.482Z,5.17
2023-11-30T23:09:54.434Z,5.15
2023-11-30T23:12:22.188Z,5.18
2023-11-30T23:14:50.168Z,5.15
2023-11-30T23:17:19.469Z,5.11
2023-11-30T23:19:47.278Z,5.06
2023-11-30T23:22:16.607Z,5.05
2023-11-30T23:24:44.466Z,5.02
2023-11-30T23:27:12.223Z,5.06
2023-11-30T23:29:41.363Z,5.06
2023-11-30T23:32:09.548Z,5.11
2023-11-30T23:34:38.160Z,5.15
2023-11-30T23:37:06.488Z,5.12
2023-11-30T23:39:35.657Z,5.11
2023-11-30T23:42:03.395Z,5.15
2023-11-30T23:44:31.290Z,5.12
2023-11-30T23:46:59.112Z,5.04
2023-11-30T23:49:27.118Z,5.03
2023-11-30T23:51:55.111Z,4.99
2023-11-30T23:54:22.983Z,4.97
2023-11-30T23:56:52.076Z,4.98
2023-11-30T23:59:20.106Z,5.00
